Main page
METAR-TAF:

METAR-TAF

Airports :

Logroño–Agoncillo Airport

Logroño, Spain

latitude: 42-27N, longitude: 002-20W, elevation: 353 m

Current weather observation

The report was made 18 minutes ago, at 00:30 UTC
Wind 3 kt from the West, varying between West/Southwest and Northwest
Temperature 19°C
Humidity 78%
Pressure 1019 hPa
Visibility 10 km or more
Overcast at a height of 2900 ft

METAR: LELO 140030Z AUTO 27003KT 240V320 9999 OVC029 19/15 Q1019

Time: 02:48 (00:48 UTC)

Forecast

The report was made 4 hours and 48 minutes ago, at 20:00 UTC
Forecast valid from 13 at 21 UTC to 14 at 21 UTC
Wind 5 kt from variable directions
Visibility 10 km or more
Few clouds at a height of 3500 ft
Probability 40% :
Temporary
from 13 at 21 UTC to 14 at 10 UTC
Wind 10 kt from the West/Northwest
Probability 30% :
Temporary
from 14 at 11 UTC to 14 at 21 UTC
Wind 10 kt from the East

TAF: LELO 132000Z 1321/1421 VRB05KT 9999 FEW035 TX30/1415Z TN16/1405Z PROB40 TEMPO 1321/1410 29010KT PROB30 TEMPO 1411/1421 10010KT

Weather observations and forecasts of more than 4000 airports (METAR and TAF reports).

The available stations are represented by yellow and red dots on the map.

Hover mouse over dot to see the name of the station.

Then click to see weather observations and forecasts.

To change the map : click on the green buttons with a black cross to zoom in, on the green button with a dash to zoom out, or on the green arrows for adjacent maps.


METAR-TAF: